sensor_id;sensor_type;location;lat;lon;timestamp;temperature;humidity
69503;SHT31;56704;54.242;12.442;2023-02-15T00:01:54;0.62;91.45
69503;SHT31;56704;54.242;12.442;2023-02-15T00:04:23;0.61;91.51
69503;SHT31;56704;54.242;12.442;2023-02-15T00:06:50;0.56;91.61
69503;SHT31;56704;54.242;12.442;2023-02-15T00:09:18;0.56;91.61
69503;SHT31;56704;54.242;12.442;2023-02-15T00:11:44;0.55;91.44
69503;SHT31;56704;54.242;12.442;2023-02-15T00:14:17;0.54;91.54
69503;SHT31;56704;54.242;12.442;2023-02-15T00:16:45;0.49;91.73
69503;SHT31;56704;54.242;12.442;2023-02-15T00:19:13;0.44;91.65
69503;SHT31;56704;54.242;12.442;2023-02-15T00:21:41;0.42;91.85
69503;SHT31;56704;54.242;12.442;2023-02-15T00:24:10;0.41;91.66
69503;SHT31;56704;54.242;12.442;2023-02-15T00:26:39;0.40;91.73
69503;SHT31;56704;54.242;12.442;2023-02-15T00:29:07;0.38;91.79
69503;SHT31;56704;54.242;12.442;2023-02-15T00:31:34;0.35;91.75
69503;SHT31;56704;54.242;12.442;2023-02-15T00:34:01;0.28;91.66
69503;SHT31;56704;54.242;12.442;2023-02-15T00:36:28;0.27;91.46
69503;SHT31;56704;54.242;12.442;2023-02-15T00:38:55;0.22;91.75
69503;SHT31;56704;54.242;12.442;2023-02-15T00:41:21;0.22;92.05
69503;SHT31;56704;54.242;12.442;2023-02-15T00:43:49;0.17;92.08
69503;SHT31;56704;54.242;12.442;2023-02-15T00:46:16;0.17;92.04
69503;SHT31;56704;54.242;12.442;2023-02-15T00:48:43;0.18;91.91
69503;SHT31;56704;54.242;12.442;2023-02-15T00:51:09;0.21;92.05
69503;SHT31;56704;54.242;12.442;2023-02-15T00:53:36;0.22;92.08
69503;SHT31;56704;54.242;12.442;2023-02-15T00:56:03;0.18;92.05
69503;SHT31;56704;54.242;12.442;2023-02-15T00:58:29;0.22;91.99
69503;SHT31;56704;54.242;12.442;2023-02-15T01:01:02;0.19;92.05
69503;SHT31;56704;54.242;12.442;2023-02-15T01:03:30;0.14;92.04
69503;SHT31;56704;54.242;12.442;2023-02-15T01:05:57;0.19;92.38
69503;SHT31;56704;54.242;12.442;2023-02-15T01:08:23;0.27;92.48
69503;SHT31;56704;54.242;12.442;2023-02-15T01:10:50;0.31;92.32
69503;SHT31;56704;54.242;12.442;2023-02-15T01:13:17;0.31;92.21
69503;SHT31;56704;54.242;12.442;2023-02-15T01:15:44;0.31;92.30
69503;SHT31;56704;54.242;12.442;2023-02-15T01:18:12;0.31;92.37
69503;SHT31;56704;54.242;12.442;2023-02-15T01:20:39;0.40;92.30
69503;SHT31;56704;54.242;12.442;2023-02-15T01:23:07;0.34;92.24
69503;SHT31;56704;54.242;12.442;2023-02-15T01:25:34;0.31;92.19
69503;SHT31;56704;54.242;12.442;2023-02-15T01:28:02;0.31;92.07
69503;SHT31;56704;54.242;12.442;2023-02-15T01:30:29;0.25;92.07
69503;SHT31;56704;54.242;12.442;2023-02-15T01:32:56;0.21;92.11
69503;SHT31;56704;54.242;12.442;2023-02-15T01:35:24;0.21;92.27
69503;SHT31;56704;54.242;12.442;2023-02-15T01:37:51;0.15;92.20
69503;SHT31;56704;54.242;12.442;2023-02-15T01:40:18;0.15;92.24
69503;SHT31;56704;54.242;12.442;2023-02-15T01:42:45;0.13;92.24
69503;SHT31;56704;54.242;12.442;2023-02-15T01:45:19;0.08;92.38
69503;SHT31;56704;54.242;12.442;2023-02-15T01:47:51;0.06;92.18
69503;SHT31;56704;54.242;12.442;2023-02-15T01:50:25;0.01;92.38
69503;SHT31;56704;54.242;12.442;2023-02-15T01:52:56;0.03;92.47
69503;SHT31;56704;54.242;12.442;2023-02-15T01:55:25;0.03;92.40
69503;SHT31;56704;54.242;12.442;2023-02-15T01:57:53;0.00;92.46
69503;SHT31;56704;54.242;12.442;2023-02-15T02:00:20;-0.06;92.34
69503;SHT31;56704;54.242;12.442;2023-02-15T02:02:49;0.03;92.47
69503;SHT31;56704;54.242;12.442;2023-02-15T02:05:17;0.01;92.32
69503;SHT31;56704;54.242;12.442;2023-02-15T02:07:46;0.03;92.32
69503;SHT31;56704;54.242;12.442;2023-02-15T02:10:17;0.08;92.39
69503;SHT31;56704;54.242;12.442;2023-02-15T02:12:45;0.06;92.28
69503;SHT31;56704;54.242;12.442;2023-02-15T02:15:13;0.07;92.34
69503;SHT31;56704;54.242;12.442;2023-02-15T02:17:49;0.03;92.41
69503;SHT31;56704;54.242;12.442;2023-02-15T02:20:51;0.00;92.38
69503;SHT31;56704;54.242;12.442;2023-02-15T02:23:38;0.04;92.45
69503;SHT31;56704;54.242;12.442;2023-02-15T02:26:37;0.00;92.36
69503;SHT31;56704;54.242;12.442;2023-02-15T02:35:19;-0.10;92.38
69503;SHT31;56704;54.242;12.442;2023-02-15T02:37:56;-0.11;92.01
69503;SHT31;56704;54.242;12.442;2023-02-15T02:40:32;-0.14;92.57
69503;SHT31;56704;54.242;12.442;2023-02-15T02:43:05;-0.18;92.23
69503;SHT31;56704;54.242;12.442;2023-02-15T02:45:39;-0.23;92.19
69503;SHT31;56704;54.242;12.442;2023-02-15T02:48:10;-0.28;92.23
69503;SHT31;56704;54.242;12.442;2023-02-15T02:50:45;-0.31;92.24
69503;SHT31;56704;54.242;12.442;2023-02-15T02:53:12;-0.33;92.09
69503;SHT31;56704;54.242;12.442;2023-02-15T02:55:41;-0.35;92.01
69503;SHT31;56704;54.242;12.442;2023-02-15T02:58:13;-0.42;92.38
69503;SHT31;56704;54.242;12.442;2023-02-15T03:00:45;-0.45;92.35
69503;SHT31;56704;54.242;12.442;2023-02-15T03:03:20;-0.44;92.52
69503;SHT31;56704;54.242;12.442;2023-02-15T03:05:51;-0.45;92.70
69503;SHT31;56704;54.242;12.442;2023-02-15T03:08:21;-0.47;92.53
69503;SHT31;56704;54.242;12.442;2023-02-15T03:10:53;-0.45;92.67
69503;SHT31;56704;54.242;12.442;2023-02-15T03:13:22;-0.45;92.65
69503;SHT31;56704;54.242;12.442;2023-02-15T03:15:49;-0.50;92.67
69503;SHT31;56704;54.242;12.442;2023-02-15T03:18:38;-0.53;92.45
69503;SHT31;56704;54.242;12.442;2023-02-15T03:21:08;-0.53;92.58
69503;SHT31;56704;54.242;12.442;2023-02-15T03:23:49;-0.58;92.60
69503;SHT31;56704;54.242;12.442;2023-02-15T03:26:19;-0.61;92.63
69503;SHT31;56704;54.242;12.442;2023-02-15T03:28:49;-0.58;92.76
69503;SHT31;56704;54.242;12.442;2023-02-15T03:31:18;-0.58;92.81
69503;SHT31;56704;54.242;12.442;2023-02-15T03:33:51;-0.58;92.82
69503;SHT31;56704;54.242;12.442;2023-02-15T03:36:22;-0.58;92.84
69503;SHT31;56704;54.242;12.442;2023-02-15T03:38:57;-0.60;92.89
69503;SHT31;56704;54.242;12.442;2023-02-15T03:41:27;-0.57;92.95
69503;SHT31;56704;54.242;12.442;2023-02-15T03:43:58;-0.55;92.85
69503;SHT31;56704;54.242;12.442;2023-02-15T03:46:30;-0.58;92.80
69503;SHT31;56704;54.242;12.442;2023-02-15T03:49:02;-0.57;92.96
69503;SHT31;56704;54.242;12.442;2023-02-15T03:51:34;-0.58;93.09
69503;SHT31;56704;54.242;12.442;2023-02-15T03:54:05;-0.62;92.93
69503;SHT31;56704;54.242;12.442;2023-02-15T03:56:34;-0.64;92.89
69503;SHT31;56704;54.242;12.442;2023-02-15T03:59:01;-0.64;92.84
69503;SHT31;56704;54.242;12.442;2023-02-15T04:01:50;-0.64;92.92
69503;SHT31;56704;54.242;12.442;2023-02-15T04:04:32;-0.68;92.77
69503;SHT31;56704;54.242;12.442;2023-02-15T04:07:00;-0.66;92.89
69503;SHT31;56704;54.242;12.442;2023-02-15T04:09:27;-0.66;92.86
69503;SHT31;56704;54.242;12.442;2023-02-15T04:12:11;-0.69;92.88
69503;SHT31;56704;54.242;12.442;2023-02-15T04:14:38;-0.66;93.03
69503;SHT31;56704;54.242;12.442;2023-02-15T04:17:22;-0.66;93.13
69503;SHT31;56704;54.242;12.442;2023-02-15T04:19:49;-0.64;93.11
69503;SHT31;56704;54.242;12.442;2023-02-15T04:22:34;-0.64;93.21
69503;SHT31;56704;54.242;12.442;2023-02-15T04:25:18;-0.60;93.20
69503;SHT31;56704;54.242;12.442;2023-02-15T04:27:48;-0.62;93.21
69503;SHT31;56704;54.242;12.442;2023-02-15T04:30:16;-0.54;93.38
69503;SHT31;56704;54.242;12.442;2023-02-15T04:32:43;-0.53;93.33
69503;SHT31;56704;54.242;12.442;2023-02-15T04:35:10;-0.50;93.24
69503;SHT31;56704;54.242;12.442;2023-02-15T04:37:39;-0.50;93.34
69503;SHT31;56704;54.242;12.442;2023-02-15T04:40:07;-0.54;93.23
69503;SHT31;56704;54.242;12.442;2023-02-15T04:42:34;-0.50;93.30
69503;SHT31;56704;54.242;12.442;2023-02-15T04:45:01;-0.50;93.23
69503;SHT31;56704;54.242;12.442;2023-02-15T04:47:28;-0.54;93.24
69503;SHT31;56704;54.242;12.442;2023-02-15T04:49:54;-0.55;93.19
69503;SHT31;56704;54.242;12.442;2023-02-15T04:52:21;-0.53;93.24
69503;SHT31;56704;54.242;12.442;2023-02-15T04:54:49;-0.57;93.06
69503;SHT31;56704;54.242;12.442;2023-02-15T04:57:16;-0.54;93.18
69503;SHT31;56704;54.242;12.442;2023-02-15T04:59:43;-0.55;93.04
69503;SHT31;56704;54.242;12.442;2023-02-15T05:02:09;-0.62;93.03
69503;SHT31;56704;54.242;12.442;2023-02-15T05:04:36;-0.61;93.04
69503;SHT31;56704;54.242;12.442;2023-02-15T05:07:03;-0.58;93.16
69503;SHT31;56704;54.242;12.442;2023-02-15T05:09:29;-0.64;93.06
69503;SHT31;56704;54.242;12.442;2023-02-15T05:11:57;-0.62;93.02
69503;SHT31;56704;54.242;12.442;2023-02-15T05:14:24;-0.57;93.22
69503;SHT31;56704;54.242;12.442;2023-02-15T05:16:50;-0.60;93.12
69503;SHT31;56704;54.242;12.442;2023-02-15T05:19:19;-0.64;92.97
69503;SHT31;56704;54.242;12.442;2023-02-15T05:21:45;-0.60;93.09
69503;SHT31;56704;54.242;12.442;2023-02-15T05:24:12;-0.58;93.18
69503;SHT31;56704;54.242;12.442;2023-02-15T05:26:57;-0.58;93.25
69503;SHT31;56704;54.242;12.442;2023-02-15T05:29:41;-0.57;93.21
69503;SHT31;56704;54.242;12.442;2023-02-15T05:32:08;-0.61;93.13
69503;SHT31;56704;54.242;12.442;2023-02-15T05:34:35;-0.62;93.21
69503;SHT31;56704;54.242;12.442;2023-02-15T05:37:02;-0.61;93.19
69503;SHT31;56704;54.242;12.442;2023-02-15T05:39:28;-0.64;93.20
69503;SHT31;56704;54.242;12.442;2023-02-15T05:41:59;-0.62;93.25
69503;SHT31;56704;54.242;12.442;2023-02-15T05:44:26;-0.61;93.35
69503;SHT31;56704;54.242;12.442;2023-02-15T05:46:52;-0.62;93.44
69503;SHT31;56704;54.242;12.442;2023-02-15T05:49:19;-0.51;93.46
69503;SHT31;56704;54.242;12.442;2023-02-15T05:51:46;-0.51;93.35
69503;SHT31;56704;54.242;12.442;2023-02-15T05:54:12;-0.53;93.33
69503;SHT31;56704;54.242;12.442;2023-02-15T05:56:39;-0.48;93.42
69503;SHT31;56704;54.242;12.442;2023-02-15T05:59:07;-0.45;93.32
69503;SHT31;56704;54.242;12.442;2023-02-15T06:01:33;-0.47;93.32
69503;SHT31;56704;54.242;12.442;2023-02-15T06:04:00;-0.47;93.39
69503;SHT31;56704;54.242;12.442;2023-02-15T06:06:27;-0.40;93.40
69503;SHT31;56704;54.242;12.442;2023-02-15T06:08:53;-0.41;93.29
69503;SHT31;56704;54.242;12.442;2023-02-15T06:11:20;-0.35;93.33
69503;SHT31;56704;54.242;12.442;2023-02-15T06:13:46;-0.37;93.20
69503;SHT31;56704;54.242;12.442;2023-02-15T06:16:14;-0.33;93.26
69503;SHT31;56704;54.242;12.442;2023-02-15T06:18:42;-0.34;93.18
69503;SHT31;56704;54.242;12.442;2023-02-15T06:21:08;-0.34;93.25
69503;SHT31;56704;54.242;12.442;2023-02-15T06:23:35;-0.28;93.22
69503;SHT31;56704;54.242;12.442;2023-02-15T06:26:01;-0.30;93.30
69503;SHT31;56704;54.242;12.442;2023-02-15T06:28:28;-0.24;93.30
69503;SHT31;56704;54.242;12.442;2023-02-15T06:30:55;-0.28;93.11
69503;SHT31;56704;54.242;12.442;2023-02-15T06:33:23;-0.34;93.09
69503;SHT31;56704;54.242;12.442;2023-02-15T06:35:50;-0.37;93.15
69503;SHT31;56704;54.242;12.442;2023-02-15T06:38:17;-0.34;93.07
69503;SHT31;56704;54.242;12.442;2023-02-15T06:40:43;-0.38;93.09
69503;SHT31;56704;54.242;12.442;2023-02-15T06:43:10;-0.37;93.09
69503;SHT31;56704;54.242;12.442;2023-02-15T06:45:37;-0.31;93.04
69503;SHT31;56704;54.242;12.442;2023-02-15T06:48:04;-0.31;93.04
69503;SHT31;56704;54.242;12.442;2023-02-15T06:50:33;-0.28;93.11
69503;SHT31;56704;54.242;12.442;2023-02-15T06:53:00;-0.23;93.15
69503;SHT31;56704;54.242;12.442;2023-02-15T06:55:26;-0.20;93.07
69503;SHT31;56704;54.242;12.442;2023-02-15T06:57:53;-0.18;93.08
69503;SHT31;56704;54.242;12.442;2023-02-15T07:00:20;-0.13;93.11
69503;SHT31;56704;54.242;12.442;2023-02-15T07:02:53;-0.07;92.94
69503;SHT31;56704;54.242;12.442;2023-02-15T07:05:21;-0.02;92.94
69503;SHT31;56704;54.242;12.442;2023-02-15T07:07:49;0.04;92.82
69503;SHT31;56704;54.242;12.442;2023-02-15T07:10:16;0.08;92.69
69503;SHT31;56704;54.242;12.442;2023-02-15T07:12:43;0.17;92.64
69503;SHT31;56704;54.242;12.442;2023-02-15T07:15:11;0.18;92.71
69503;SHT31;56704;54.242;12.442;2023-02-15T07:17:38;0.21;92.66
69503;SHT31;56704;54.242;12.442;2023-02-15T07:20:07;0.24;92.60
69503;SHT31;56704;54.242;12.442;2023-02-15T07:22:34;0.31;92.55
69503;SHT31;56704;54.242;12.442;2023-02-15T07:25:04;0.32;92.51
69503;SHT31;56704;54.242;12.442;2023-02-15T07:27:31;0.37;92.46
69503;SHT31;56704;54.242;12.442;2023-02-15T07:29:58;0.42;92.44
69503;SHT31;56704;54.242;12.442;2023-02-15T07:32:27;0.49;92.37
69503;SHT31;56704;54.242;12.442;2023-02-15T07:34:54;0.64;92.30
69503;SHT31;56704;54.242;12.442;2023-02-15T07:37:21;0.72;92.10
69503;SHT31;56704;54.242;12.442;2023-02-15T07:39:48;0.77;91.96
69503;SHT31;56704;54.242;12.442;2023-02-15T07:42:16;0.93;92.08
69503;SHT31;56704;54.242;12.442;2023-02-15T07:44:43;0.96;91.73
69503;SHT31;56704;54.242;12.442;2023-02-15T07:47:09;1.01;91.58
69503;SHT31;56704;54.242;12.442;2023-02-15T07:49:37;0.97;91.49
69503;SHT31;56704;54.242;12.442;2023-02-15T07:52:04;0.92;91.45
69503;SHT31;56704;54.242;12.442;2023-02-15T07:54:31;0.92;91.41
69503;SHT31;56704;54.242;12.442;2023-02-15T07:56:57;0.95;91.35
69503;SHT31;56704;54.242;12.442;2023-02-15T07:59:25;1.10;91.31
69503;SHT31;56704;54.242;12.442;2023-02-15T08:01:52;1.13;91.24
69503;SHT31;56704;54.242;12.442;2023-02-15T08:04:21;1.17;91.25
69503;SHT31;56704;54.242;12.442;2023-02-15T08:06:52;1.10;91.09
69503;SHT31;56704;54.242;12.442;2023-02-15T08:09:19;1.13;91.22
69503;SHT31;56704;54.242;12.442;2023-02-15T08:11:46;1.12;91.21
69503;SHT31;56704;54.242;12.442;2023-02-15T08:14:14;1.08;91.23
69503;SHT31;56704;54.242;12.442;2023-02-15T08:16:44;1.06;91.41
69503;SHT31;56704;54.242;12.442;2023-02-15T08:19:12;1.03;91.56
69503;SHT31;56704;54.242;12.442;2023-02-15T08:21:40;1.06;91.63
69503;SHT31;56704;54.242;12.442;2023-02-15T08:24:09;1.10;91.62
69503;SHT31;56704;54.242;12.442;2023-02-15T08:26:36;1.17;91.69
69503;SHT31;56704;54.242;12.442;2023-02-15T08:29:04;1.17;91.75
69503;SHT31;56704;54.242;12.442;2023-02-15T08:31:32;1.23;91.88
69503;SHT31;56704;54.242;12.442;2023-02-15T08:34:00;1.24;91.71
69503;SHT31;56704;54.242;12.442;2023-02-15T08:36:28;1.27;91.73
69503;SHT31;56704;54.242;12.442;2023-02-15T08:38:57;1.30;91.67
69503;SHT31;56704;54.242;12.442;2023-02-15T08:41:25;1.31;91.76
69503;SHT31;56704;54.242;12.442;2023-02-15T08:43:53;1.34;91.81
69503;SHT31;56704;54.242;12.442;2023-02-15T08:46:22;1.43;91.80
69503;SHT31;56704;54.242;12.442;2023-02-15T08:48:49;1.50;91.82
69503;SHT31;56704;54.242;12.442;2023-02-15T08:51:19;1.41;91.71
69503;SHT31;56704;54.242;12.442;2023-02-15T08:53:48;1.43;91.95
69503;SHT31;56704;54.242;12.442;2023-02-15T08:56:16;1.47;91.94
69503;SHT31;56704;54.242;12.442;2023-02-15T08:58:44;1.54;91.99
69503;SHT31;56704;54.242;12.442;2023-02-15T09:01:13;1.57;91.94
69503;SHT31;56704;54.242;12.442;2023-02-15T09:03:43;1.61;91.82
69503;SHT31;56704;54.242;12.442;2023-02-15T09:06:10;1.51;91.90
69503;SHT31;56704;54.242;12.442;2023-02-15T09:08:38;1.57;91.96
69503;SHT31;56704;54.242;12.442;2023-02-15T09:11:07;1.54;91.92
69503;SHT31;56704;54.242;12.442;2023-02-15T09:13:34;1.54;92.02
69503;SHT31;56704;54.242;12.442;2023-02-15T09:16:01;1.62;92.02
69503;SHT31;56704;54.242;12.442;2023-02-15T09:18:30;1.61;92.00
69503;SHT31;56704;54.242;12.442;2023-02-15T09:21:03;1.55;92.11
69503;SHT31;56704;54.242;12.442;2023-02-15T09:23:30;1.68;92.07
69503;SHT31;56704;54.242;12.442;2023-02-15T09:26:01;1.81;91.92
69503;SHT31;56704;54.242;12.442;2023-02-15T09:28:28;1.69;91.90
69503;SHT31;56704;54.242;12.442;2023-02-15T09:30:55;1.82;91.95
69503;SHT31;56704;54.242;12.442;2023-02-15T09:33:22;1.76;91.97
69503;SHT31;56704;54.242;12.442;2023-02-15T09:35:50;1.81;91.89
69503;SHT31;56704;54.242;12.442;2023-02-15T09:38:17;1.74;91.97
69503;SHT31;56704;54.242;12.442;2023-02-15T09:40:49;1.79;92.04
69503;SHT31;56704;54.242;12.442;2023-02-15T09:43:29;1.81;92.08
69503;SHT31;56704;54.242;12.442;2023-02-15T09:46:11;1.89;92.15
69503;SHT31;56704;54.242;12.442;2023-02-15T09:48:48;1.85;91.95
69503;SHT31;56704;54.242;12.442;2023-02-15T09:51:37;1.85;92.19
69503;SHT31;56704;54.242;12.442;2023-02-15T09:54:33;1.86;92.23
69503;SHT31;56704;54.242;12.442;2023-02-15T09:57:09;1.95;92.12
69503;SHT31;56704;54.242;12.442;2023-02-15T09:59:48;2.10;92.10
69503;SHT31;56704;54.242;12.442;2023-02-15T10:02:27;2.10;91.86
69503;SHT31;56704;54.242;12.442;2023-02-15T10:05:10;2.20;91.99
69503;SHT31;56704;54.242;12.442;2023-02-15T10:07:58;2.32;91.67
69503;SHT31;56704;54.242;12.442;2023-02-15T10:10:35;2.25;91.68
69503;SHT31;56704;54.242;12.442;2023-02-15T10:13:18;2.27;91.72
69503;SHT31;56704;54.242;12.442;2023-02-15T10:15:58;2.25;91.80
69503;SHT31;56704;54.242;12.442;2023-02-15T10:18:39;2.34;91.79
69503;SHT31;56704;54.242;12.442;2023-02-15T10:21:13;2.38;91.60
69503;SHT31;56704;54.242;12.442;2023-02-15T10:23:55;2.50;91.65
69503;SHT31;56704;54.242;12.442;2023-02-15T10:26:31;2.58;91.47
69503;SHT31;56704;54.242;12.442;2023-02-15T10:29:04;2.50;91.50
69503;SHT31;56704;54.242;12.442;2023-02-15T10:31:42;2.62;91.51
69503;SHT31;56704;54.242;12.442;2023-02-15T10:34:15;2.73;91.40
69503;SHT31;56704;54.242;12.442;2023-02-15T10:37:06;2.65;91.11
69503;SHT31;56704;54.242;12.442;2023-02-15T10:39:43;2.71;91.39
69503;SHT31;56704;54.242;12.442;2023-02-15T10:42:20;2.74;91.19
69503;SHT31;56704;54.242;12.442;2023-02-15T10:45:01;2.89;91.10
69503;SHT31;56704;54.242;12.442;2023-02-15T10:47:45;2.74;91.27
69503;SHT31;56704;54.242;12.442;2023-02-15T10:50:23;2.81;91.49
69503;SHT31;56704;54.242;12.442;2023-02-15T10:53:00;2.92;91.16
69503;SHT31;56704;54.242;12.442;2023-02-15T10:55:44;3.04;91.22
69503;SHT31;56704;54.242;12.442;2023-02-15T10:58:17;2.73;91.22
69503;SHT31;56704;54.242;12.442;2023-02-15T11:00:53;2.70;91.54
69503;SHT31;56704;54.242;12.442;2023-02-15T11:03:36;2.76;91.52
69503;SHT31;56704;54.242;12.442;2023-02-15T11:06:07;2.68;91.72
69503;SHT31;56704;54.242;12.442;2023-02-15T11:08:38;2.70;91.61
69503;SHT31;56704;54.242;12.442;2023-02-15T11:11:08;2.54;91.88
69503;SHT31;56704;54.242;12.442;2023-02-15T11:13:38;2.73;92.06
69503;SHT31;56704;54.242;12.442;2023-02-15T11:16:11;2.64;91.86
69503;SHT31;56704;54.242;12.442;2023-02-15T11:18:43;2.62;91.92
69503;SHT31;56704;54.242;12.442;2023-02-15T11:21:14;2.65;92.05
69503;SHT31;56704;54.242;12.442;2023-02-15T11:23:44;2.62;92.05
69503;SHT31;56704;54.242;12.442;2023-02-15T11:26:14;2.71;92.04
69503;SHT31;56704;54.242;12.442;2023-02-15T11:28:47;2.88;92.01
69503;SHT31;56704;54.242;12.442;2023-02-15T11:31:17;2.84;91.87
69503;SHT31;56704;54.242;12.442;2023-02-15T11:33:49;2.83;91.96
69503;SHT31;56704;54.242;12.442;2023-02-15T11:36:21;2.81;91.91
69503;SHT31;56704;54.242;12.442;2023-02-15T11:38:54;2.85;92.01
69503;SHT31;56704;54.242;12.442;2023-02-15T11:41:25;2.92;91.85
69503;SHT31;56704;54.242;12.442;2023-02-15T11:43:58;2.95;91.63
69503;SHT31;56704;54.242;12.442;2023-02-15T11:46:27;3.09;91.51
69503;SHT31;56704;54.242;12.442;2023-02-15T11:48:55;3.26;91.29
69503;SHT31;56704;54.242;12.442;2023-02-15T11:51:23;3.20;91.06
69503;SHT31;56704;54.242;12.442;2023-02-15T11:53:51;3.16;91.19
69503;SHT31;56704;54.242;12.442;2023-02-15T11:56:21;3.26;91.26
69503;SHT31;56704;54.242;12.442;2023-02-15T11:58:52;3.35;91.11
69503;SHT31;56704;54.242;12.442;2023-02-15T12:01:24;3.44;91.08
69503;SHT31;56704;54.242;12.442;2023-02-15T12:03:57;3.56;90.82
69503;SHT31;56704;54.242;12.442;2023-02-15T12:06:27;3.55;90.61
69503;SHT31;56704;54.242;12.442;2023-02-15T12:09:02;3.56;90.81
69503;SHT31;56704;54.242;12.442;2023-02-15T12:11:35;3.46;90.88
69503;SHT31;56704;54.242;12.442;2023-02-15T12:14:03;3.55;90.82
69503;SHT31;56704;54.242;12.442;2023-02-15T12:16:39;3.66;90.81
69503;SHT31;56704;54.242;12.442;2023-02-15T12:19:18;3.69;90.66
69503;SHT31;56704;54.242;12.442;2023-02-15T12:21:50;3.67;90.69
69503;SHT31;56704;54.242;12.442;2023-02-15T12:24:20;3.77;90.74
69503;SHT31;56704;54.242;12.442;2023-02-15T12:26:56;3.87;90.50
69503;SHT31;56704;54.242;12.442;2023-02-15T12:29:27;3.95;90.27
69503;SHT31;56704;54.242;12.442;2023-02-15T12:31:56;3.91;90.29
69503;SHT31;56704;54.242;12.442;2023-02-15T12:34:27;3.91;90.25
69503;SHT31;56704;54.242;12.442;2023-02-15T12:36:59;3.90;90.32
69503;SHT31;56704;54.242;12.442;2023-02-15T12:39:28;3.88;90.35
69503;SHT31;56704;54.242;12.442;2023-02-15T12:42:01;3.88;90.46
69503;SHT31;56704;54.242;12.442;2023-02-15T12:44:30;3.91;90.53
69503;SHT31;56704;54.242;12.442;2023-02-15T12:46:59;4.01;90.50
69503;SHT31;56704;54.242;12.442;2023-02-15T12:49:28;4.12;90.31
69503;SHT31;56704;54.242;12.442;2023-02-15T12:51:56;4.19;90.13
69503;SHT31;56704;54.242;12.442;2023-02-15T12:54:35;4.09;90.08
69503;SHT31;56704;54.242;12.442;2023-02-15T12:57:15;4.19;90.03
69503;SHT31;56704;54.242;12.442;2023-02-15T12:59:50;4.35;89.91
69503;SHT31;56704;54.242;12.442;2023-02-15T13:02:22;4.39;89.70
69503;SHT31;56704;54.242;12.442;2023-02-15T13:04:51;4.44;89.54
69503;SHT31;56704;54.242;12.442;2023-02-15T13:07:18;4.44;89.39
69503;SHT31;56704;54.242;12.442;2023-02-15T13:09:46;4.42;89.41
69503;SHT31;56704;54.242;12.442;2023-02-15T13:12:18;4.42;89.30
69503;SHT31;56704;54.242;12.442;2023-02-15T13:14:47;4.38;89.45
69503;SHT31;56704;54.242;12.442;2023-02-15T13:17:18;4.39;89.39
69503;SHT31;56704;54.242;12.442;2023-02-15T13:19:47;4.45;89.42
69503;SHT31;56704;54.242;12.442;2023-02-15T13:22:20;4.37;89.46
69503;SHT31;56704;54.242;12.442;2023-02-15T13:24:50;4.39;89.63
69503;SHT31;56704;54.242;12.442;2023-02-15T13:27:20;4.38;89.46
69503;SHT31;56704;54.242;12.442;2023-02-15T13:29:50;4.31;89.63
69503;SHT31;56704;54.242;12.442;2023-02-15T13:32:26;4.27;90.01
69503;SHT31;56704;54.242;12.442;2023-02-15T13:34:56;4.28;90.00
69503;SHT31;56704;54.242;12.442;2023-02-15T13:37:43;4.24;89.88
69503;SHT31;56704;54.242;12.442;2023-02-15T13:40:13;4.25;89.95
69503;SHT31;56704;54.242;12.442;2023-02-15T13:42:47;4.28;89.97
69503;SHT31;56704;54.242;12.442;2023-02-15T13:45:39;4.18;90.16
69503;SHT31;56704;54.242;12.442;2023-02-15T13:48:17;4.15;90.31
69503;SHT31;56704;54.242;12.442;2023-02-15T13:50:56;4.09;90.48
69503;SHT31;56704;54.242;12.442;2023-02-15T13:53:46;4.19;90.43
69503;SHT31;56704;54.242;12.442;2023-02-15T13:56:19;4.21;90.20
69503;SHT31;56704;54.242;12.442;2023-02-15T14:01:45;4.19;90.26
69503;SHT31;56704;54.242;12.442;2023-02-15T14:04:35;4.25;90.30
69503;SHT31;56704;54.242;12.442;2023-02-15T14:07:30;4.25;90.26
69503;SHT31;56704;54.242;12.442;2023-02-15T14:10:18;4.29;90.21
69503;SHT31;56704;54.242;12.442;2023-02-15T14:13:02;4.34;90.25
69503;SHT31;56704;54.242;12.442;2023-02-15T14:15:38;4.35;90.21
69503;SHT31;56704;54.242;12.442;2023-02-15T14:18:18;4.49;90.09
69503;SHT31;56704;54.242;12.442;2023-02-15T14:20:58;4.50;89.92
69503;SHT31;56704;54.242;12.442;2023-02-15T14:23:37;4.48;89.71
69503;SHT31;56704;54.242;12.442;2023-02-15T14:26:14;4.48;89.76
69503;SHT31;56704;54.242;12.442;2023-02-15T14:28:47;4.41;89.72
69503;SHT31;56704;54.242;12.442;2023-02-15T14:31:18;4.44;89.67
69503;SHT31;56704;54.242;12.442;2023-02-15T14:33:53;4.39;89.70
69503;SHT31;56704;54.242;12.442;2023-02-15T14:36:22;4.32;89.74
69503;SHT31;56704;54.242;12.442;2023-02-15T14:39:11;4.31;89.87
69503;SHT31;56704;54.242;12.442;2023-02-15T14:42:02;4.32;89.91
69503;SHT31;56704;54.242;12.442;2023-02-15T14:44:34;4.34;89.93
69503;SHT31;56704;54.242;12.442;2023-02-15T14:47:07;4.32;89.95
69503;SHT31;56704;54.242;12.442;2023-02-15T14:49:38;4.32;89.96
69503;SHT31;56704;54.242;12.442;2023-02-15T14:52:05;4.35;89.93
69503;SHT31;56704;54.242;12.442;2023-02-15T14:54:55;4.32;89.89
69503;SHT31;56704;54.242;12.442;2023-02-15T14:57:28;4.29;89.86
69503;SHT31;56704;54.242;12.442;2023-02-15T14:59:58;4.27;89.94
69503;SHT31;56704;54.242;12.442;2023-02-15T15:02:29;4.28;89.99
69503;SHT31;56704;54.242;12.442;2023-02-15T15:05:07;4.24;90.05
69503;SHT31;56704;54.242;12.442;2023-02-15T15:07:43;4.28;90.03
69503;SHT31;56704;54.242;12.442;2023-02-15T15:10:33;4.29;90.02
69503;SHT31;56704;54.242;12.442;2023-02-15T15:13:34;4.27;90.00
69503;SHT31;56704;54.242;12.442;2023-02-15T15:16:31;4.27;90.00
69503;SHT31;56704;54.242;12.442;2023-02-15T15:18:59;4.28;89.97
69503;SHT31;56704;54.242;12.442;2023-02-15T15:21:51;4.31;89.96
69503;SHT31;56704;54.242;12.442;2023-02-15T15:24:46;4.28;89.97
69503;SHT31;56704;54.242;12.442;2023-02-15T15:27:48;4.27;89.97
69503;SHT31;56704;54.242;12.442;2023-02-15T15:39:52;4.14;89.97
69503;SHT31;56704;54.242;12.442;2023-02-15T15:42:31;4.11;90.05
69503;SHT31;56704;54.242;12.442;2023-02-15T15:45:13;4.14;90.18
69503;SHT31;56704;54.242;12.442;2023-02-15T15:47:55;4.14;90.19
69503;SHT31;56704;54.242;12.442;2023-02-15T15:50:27;4.09;90.22
69503;SHT31;56704;54.242;12.442;2023-02-15T15:52:55;4.11;90.24
69503;SHT31;56704;54.242;12.442;2023-02-15T15:55:26;4.09;90.30
69503;SHT31;56704;54.242;12.442;2023-02-15T15:57:56;4.09;90.32
69503;SHT31;56704;54.242;12.442;2023-02-15T16:00:30;4.07;90.35
69503;SHT31;56704;54.242;12.442;2023-02-15T16:02:57;4.09;90.32
69503;SHT31;56704;54.242;12.442;2023-02-15T16:05:24;4.05;90.37
69503;SHT31;56704;54.242;12.442;2023-02-15T16:07:52;4.04;90.48
69503;SHT31;56704;54.242;12.442;2023-02-15T16:10:21;4.02;90.49
69503;SHT31;56704;54.242;12.442;2023-02-15T16:12:48;4.01;90.59
69503;SHT31;56704;54.242;12.442;2023-02-15T16:15:18;4.01;90.58